Time;durP1;ratioP1;P1;durP2;ratioP2;P2;SDS_P1;SDS_P2;PMS_P1;PMS_P2;Temp;Humidity;BMP_temperature;BMP_pressure;BME280_temperature;BME280_humidity;BME280_pressure;Samples;Min_cycle;Max_cycle;Signal;HPM_P1;HPM_P2
2022/09/24 00:00:00;;;;;;;24.30;13.60;;;;;;;6.71;96.41;99977.11;104936;1271;59647;-73
2022/09/24 00:03:11;;;;;;;24.10;13.70;;;;;;;6.67;96.56;99979.79;105288;1271;62380;-77
2022/09/24 00:06:02;;;;;;;22.10;13.00;;;;;;;6.65;96.77;99982.21;105472;1271;74948;-72
2022/09/24 00:08:54;;;;;;;21.30;13.10;;;;;;;6.63;96.77;99981.48;105326;1271;68263;-79
2022/09/24 00:11:44;;;;;;;24.10;13.00;;;;;;;6.63;97.05;99981.27;105282;1271;74440;-76
2022/09/24 00:14:32;;;;;;;23.20;12.70;;;;;;;6.63;96.78;99983.22;105865;1271;60531;-72
2022/09/24 00:17:20;;;;;;;21.50;12.10;;;;;;;6.64;96.70;99982.98;105571;1271;60899;-72
2022/09/24 00:20:08;;;;;;;21.30;12.40;;;;;;;6.64;96.59;99984.06;105268;1271;73629;-74
2022/09/24 00:22:56;;;;;;;22.80;13.30;;;;;;;6.65;96.92;99981.70;103539;1271;1003063;-76
2022/09/24 00:28:53;;;;;;;25.70;13.60;;;;;;;6.69;97.69;99980.06;105058;1271;59679;-76
2022/09/24 00:31:41;;;;;;;22.20;13.40;;;;;;;6.70;97.86;99974.17;105044;1271;59871;-76
2022/09/24 00:34:29;;;;;;;23.50;12.80;;;;;;;6.72;98.35;99971.91;104957;1271;73326;-76
2022/09/24 00:37:20;;;;;;;23.20;13.60;;;;;;;6.75;98.78;99972.23;105077;1271;69620;-74
2022/09/24 00:40:09;;;;;;;24.20;13.60;;;;;;;6.80;99.14;99970.73;104919;1274;74543;-75
2022/09/24 00:42:58;;;;;;;27.10;14.30;;;;;;;6.84;99.26;99969.95;104957;1271;59671;-76
2022/09/24 00:45:49;;;;;;;24.70;13.80;;;;;;;6.87;99.33;99967.09;105012;1271;61984;-75
2022/09/24 00:48:39;;;;;;;21.80;13.20;;;;;;;6.91;99.37;99965.98;105329;1271;72766;-75
2022/09/24 00:51:29;;;;;;;22.70;13.70;;;;;;;6.94;99.96;99959.58;105259;1271;67823;-75
2022/09/24 00:54:25;;;;;;;22.70;12.90;;;;;;;6.99;99.98;99958.91;104959;1271;72052;-74
2022/09/24 00:57:15;;;;;;;22.50;13.30;;;;;;;7.04;99.77;99953.52;104979;1271;60307;-75
2022/09/24 01:00:06;;;;;;;21.00;11.70;;;;;;;7.07;99.97;99951.90;105069;1271;62417;-75
2022/09/24 01:03:02;;;;;;;23.30;12.70;;;;;;;7.09;99.93;99951.02;105090;1271;75155;-77
2022/09/24 01:05:50;;;;;;;17.40;11.00;;;;;;;7.12;100.00;99951.70;105172;1271;67590;-75
2022/09/24 01:08:39;;;;;;;20.80;12.30;;;;;;;7.14;100.00;99948.27;105023;1271;71597;-78
2022/09/24 01:11:50;;;;;;;24.70;14.50;;;;;;;7.14;100.00;99947.52;104905;1271;250206;-77
2022/09/24 01:15:06;;;;;;;27.30;14.70;;;;;;;7.15;100.00;99943.44;105074;1273;60304;-76
2022/09/24 01:18:00;;;;;;;27.90;14.80;;;;;;;7.16;100.00;99936.45;105290;1271;70740;-77
2022/09/24 01:21:32;;;;;;;26.40;14.10;;;;;;;7.17;100.00;99936.58;104626;1271;67228;-76
2022/09/24 01:24:37;;;;;;;24.20;12.70;;;;;;;7.19;100.00;99936.50;105130;1271;74438;-73
2022/09/24 01:28:08;;;;;;;25.80;13.40;;;;;;;7.20;100.00;99933.93;104968;1271;61360;-74
2022/09/24 01:31:17;;;;;;;21.50;12.60;;;;;;;7.20;100.00;99931.26;105184;1271;60369;-75
2022/09/24 01:34:07;;;;;;;21.20;12.20;;;;;;;7.20;100.00;99930.91;105053;1271;73458;-75
2022/09/24 01:36:58;;;;;;;20.00;11.40;;;;;;;7.22;100.00;99926.39;104919;1271;69602;-77
2022/09/24 01:39:48;;;;;;;18.80;10.10;;;;;;;7.25;100.00;99926.23;104931;1271;72762;-75
2022/09/24 01:42:39;;;;;;;20.30;10.20;;;;;;;7.29;100.00;99927.52;105148;1271;60190;-74
2022/09/24 01:45:30;;;;;;;16.90;9.40;;;;;;;7.33;100.00;99922.70;105130;1271;62315;-75
2022/09/24 01:48:20;;;;;;;18.70;10.00;;;;;;;7.35;100.00;99923.98;104890;1271;74689;-74
2022/09/24 01:51:26;;;;;;;18.20;10.00;;;;;;;7.34;100.00;99921.38;104955;1271;66876;-74
2022/09/24 01:54:42;;;;;;;21.40;10.40;;;;;;;7.32;100.00;99919.36;105036;1271;72994;-74
2022/09/24 01:57:47;;;;;;;17.20;9.20;;;;;;;7.30;100.00;99918.23;105260;1271;59554;-75
2022/09/24 02:00:41;;;;;;;18.40;10.00;;;;;;;7.30;100.00;99917.39;104865;1271;62566;-74
2022/09/24 02:03:35;;;;;;;14.60;7.70;;;;;;;7.31;100.00;99920.30;105131;1271;72004;-75
2022/09/24 02:06:37;;;;;;;13.20;7.00;;;;;;;7.32;100.00;99916.02;104968;1271;69453;-75
2022/09/24 02:09:32;;;;;;;14.80;7.50;;;;;;;7.35;100.00;99919.35;105325;1271;72973;-75
2022/09/24 02:12:36;;;;;;;13.50;6.20;;;;;;;7.37;100.00;99918.84;105254;1271;60424;-76
2022/09/24 02:15:39;;;;;;;11.10;5.90;;;;;;;7.41;100.00;99918.62;105122;1271;61141;-74
2022/09/24 02:18:35;;;;;;;14.10;6.50;;;;;;;7.44;100.00;99916.11;104952;1271;73376;-75
2022/09/24 02:21:25;;;;;;;14.00;6.50;;;;;;;7.46;99.99;99918.99;104819;1272;68397;-75
2022/09/24 02:24:19;;;;;;;14.20;7.10;;;;;;;7.47;99.98;99918.87;104995;1271;70571;-75
2022/09/24 02:27:07;;;;;;;13.00;7.00;;;;;;;7.47;99.94;99913.40;104778;1271;59625;-76
2022/09/24 02:29:58;;;;;;;14.70;7.10;;;;;;;7.46;99.82;99914.37;105094;1271;59535;-74
2022/09/24 02:32:48;;;;;;;16.90;7.70;;;;;;;7.43;99.55;99911.04;105129;1272;73220;-73
2022/09/24 02:35:39;;;;;;;13.20;7.80;;;;;;;7.42;99.43;99907.11;105202;1272;69140;-74
2022/09/24 02:38:27;;;;;;;12.50;7.20;;;;;;;7.40;99.06;99905.97;105014;1271;72943;-75
2022/09/24 02:41:16;;;;;;;13.70;7.70;;;;;;;7.38;99.15;99904.00;104929;1271;59698;-74
2022/09/24 02:44:07;;;;;;;12.80;6.60;;;;;;;7.37;98.86;99902.64;104908;1271;59644;-71
2022/09/24 02:46:55;;;;;;;12.50;6.40;;;;;;;7.37;98.67;99896.99;104049;1271;1003135;-73
2022/09/24 02:49:43;;;;;;;11.60;6.50;;;;;;;7.39;98.53;99896.86;104912;1271;68000;-75
2022/09/24 02:52:31;;;;;;;12.20;6.40;;;;;;;7.40;98.33;99891.68;104939;1274;74111;-76
2022/09/24 02:55:20;;;;;;;14.50;6.40;;;;;;;7.41;97.84;99897.27;105047;1271;59660;-74
2022/09/24 02:58:08;;;;;;;12.10;6.10;;;;;;;7.42;97.89;99897.17;104991;1271;59646;-74
2022/09/24 03:00:56;;;;;;;12.10;6.30;;;;;;;7.42;97.61;99895.23;104954;1271;73026;-73
2022/09/24 03:03:45;;;;;;;14.10;6.10;;;;;;;7.42;97.47;99897.55;104933;1271;67074;-75
2022/09/24 03:06:33;;;;;;;12.10;5.80;;;;;;;7.42;97.12;99891.50;104420;1271;1003028;-75
2022/09/24 03:09:21;;;;;;;11.90;5.20;;;;;;;7.44;97.10;99892.45;105165;1271;59579;-75
2022/09/24 03:12:09;;;;;;;11.40;5.70;;;;;;;7.47;96.67;99892.09;105081;1271;61967;-77
2022/09/24 03:14:57;;;;;;;10.60;5.00;;;;;;;7.50;96.87;99892.41;105194;1271;74802;-75
2022/09/24 03:17:45;;;;;;;10.70;4.70;;;;;;;7.54;96.59;99885.45;105207;1271;68505;-75
2022/09/24 03:20:33;;;;;;;12.00;5.30;;;;;;;7.57;96.24;99883.44;105069;1271;71556;-76
2022/09/24 03:23:21;;;;;;;12.90;5.50;;;;;;;7.59;96.15;99884.89;105180;1271;59701;-75
2022/09/24 03:26:10;;;;;;;12.20;5.30;;;;;;;7.62;95.90;99882.61;105260;1271;59928;-75
2022/09/24 03:28:58;;;;;;;9.60;4.60;;;;;;;7.63;95.60;99881.60;105090;1271;74273;-74
2022/09/24 03:31:46;;;;;;;10.80;4.60;;;;;;;7.64;95.29;99879.09;105055;1271;69736;-73
2022/09/24 03:34:34;;;;;;;9.50;4.50;;;;;;;7.65;95.14;99882.89;104911;1271;73706;-75
2022/09/24 03:37:22;;;;;;;10.90;5.10;;;;;;;7.65;94.78;99883.77;105073;1271;59698;-74
2022/09/24 03:40:10;;;;;;;8.40;3.90;;;;;;;7.68;94.56;99879.91;104946;1271;60593;-75
2022/09/24 03:42:58;;;;;;;9.10;4.10;;;;;;;7.70;94.37;99884.31;104809;1274;72983;-75
2022/09/24 03:45:46;;;;;;;10.70;4.70;;;;;;;7.73;94.00;99884.30;104927;1271;67930;-75
2022/09/24 03:48:37;;;;;;;12.10;4.70;;;;;;;7.76;93.83;99883.95;105199;1271;71385;-74
2022/09/24 03:51:25;;;;;;;11.80;4.90;;;;;;;7.78;93.71;99886.48;104975;1271;59676;-76
2022/09/24 03:54:14;;;;;;;13.50;5.40;;;;;;;7.80;93.72;99882.80;104928;1271;59653;-73
2022/09/24 03:57:02;;;;;;;9.90;4.70;;;;;;;7.82;93.52;99878.94;104889;1272;70694;-74
2022/09/24 03:59:52;;;;;;;11.20;5.00;;;;;;;7.82;93.19;99873.77;105101;1271;69570;-73
2022/09/24 04:02:40;;;;;;;12.40;5.00;;;;;;;7.83;93.03;99875.48;105065;1271;75396;-76
2022/09/24 04:05:29;;;;;;;9.30;4.30;;;;;;;7.83;92.84;99877.93;105014;1271;60109;-74
2022/09/24 04:08:21;;;;;;;9.90;4.60;;;;;;;7.82;92.57;99877.49;105024;1271;61071;-76
2022/09/24 04:11:09;;;;;;;10.50;4.90;;;;;;;7.81;92.30;99880.09;105067;1271;74511;-74
2022/09/24 04:13:58;;;;;;;12.40;5.20;;;;;;;7.81;92.05;99878.29;105058;1271;69388;-76
2022/09/24 04:16:46;;;;;;;11.90;4.50;;;;;;;7.82;92.03;99880.50;106057;1270;74448;-78
2022/09/24 04:19:38;;;;;;;9.30;4.90;;;;;;;7.82;91.52;99877.48;105292;1271;61182;-76
2022/09/24 04:22:27;;;;;;;9.20;4.10;;;;;;;7.84;91.21;99876.50;105215;1271;60611;-78
2022/09/24 04:25:16;;;;;;;13.20;4.40;;;;;;;7.85;90.64;99878.01;105365;1271;74004;-77
2022/09/24 04:28:07;;;;;;;10.40;4.40;;;;;;;7.85;90.28;99878.91;105006;1271;68814;-77
2022/09/24 04:30:56;;;;;;;11.60;4.70;;;;;;;7.83;90.02;99877.41;105003;1271;71744;-79
2022/09/24 04:33:44;;;;;;;13.50;4.40;;;;;;;7.83;90.00;99875.86;105017;1271;59752;-77
2022/09/24 04:36:32;;;;;;;19.80;5.30;;;;;;;7.82;89.73;99877.52;104997;1271;61902;-78
2022/09/24 04:39:25;;;;;;;15.50;6.00;;;;;;;7.82;89.61;99877.00;105070;1271;73020;-80
2022/09/24 04:42:17;;;;;;;17.10;5.40;;;;;;;7.82;89.63;99875.52;105340;1271;66882;-79
2022/09/24 04:45:07;;;;;;;10.80;5.10;;;;;;;7.85;89.57;99875.35;104997;1271;72963;-77
2022/09/24 04:47:57;;;;;;;11.00;5.30;;;;;;;7.87;89.43;99873.15;105079;1273;59661;-78
2022/09/24 04:50:46;;;;;;;9.30;3.80;;;;;;;7.90;89.20;99872.57;105086;1271;60810;-78
2022/09/24 04:53:36;;;;;;;10.60;4.00;;;;;;;7.91;88.92;99875.67;104959;1271;73868;-79
2022/09/24 04:56:24;;;;;;;9.80;4.10;;;;;;;7.92;88.60;99870.98;105173;1271;68055;-79
2022/09/24 04:59:12;;;;;;;12.80;4.80;;;;;;;7.96;87.97;99870.39;105074;1272;71755;-78
2022/09/24 05:02:01;;;;;;;9.30;3.90;;;;;;;8.02;87.82;99865.70;105303;1271;60829;-78
2022/09/24 05:04:56;;;;;;;9.20;3.90;;;;;;;8.09;87.09;99861.15;104941;1271;60023;-75
2022/09/24 05:07:44;;;;;;;9.00;4.00;;;;;;;8.15;86.38;99861.23;104895;1274;70855;-76
2022/09/24 05:10:33;;;;;;;8.70;3.40;;;;;;;8.21;85.79;99864.95;104862;1273;67011;-77
2022/09/24 05:13:21;;;;;;;10.30;3.50;;;;;;;8.24;84.23;99861.14;104919;1271;72629;-77
2022/09/24 05:16:09;;;;;;;9.10;4.00;;;;;;;8.29;84.12;99863.62;105018;1271;60228;-77
2022/09/24 05:18:57;;;;;;;12.20;4.20;;;;;;;8.35;84.34;99862.54;105189;1271;60480;-80
2022/09/24 05:21:45;;;;;;;9.10;3.70;;;;;;;8.39;83.83;99863.98;105127;1274;71707;-81
2022/09/24 05:24:34;;;;;;;8.30;3.80;;;;;;;8.44;84.02;99861.89;105575;1271;66686;-82
2022/09/24 05:27:22;;;;;;;9.30;4.20;;;;;;;8.47;83.99;99863.23;105401;1271;71337;-81
2022/09/24 05:30:11;;;;;;;10.50;4.10;;;;;;;8.50;83.44;99860.20;105332;1271;59685;-81
2022/09/24 05:33:00;;;;;;;9.20;3.80;;;;;;;8.54;83.65;99859.06;105268;1271;59756;-81
2022/09/24 05:35:56;;;;;;;11.00;4.40;;;;;;;8.59;83.70;99860.27;105451;1271;72492;-79
2022/09/24 05:38:45;;;;;;;10.10;4.60;;;;;;;8.66;83.26;99861.70;104913;1275;68036;-76
2022/09/24 05:41:33;;;;;;;10.60;4.20;;;;;;;8.76;82.43;99866.15;104819;1276;73068;-78
2022/09/24 05:44:22;;;;;;;8.70;3.90;;;;;;;8.85;81.81;99864.77;104788;1277;59633;-79
2022/09/24 05:47:09;;;;;;;8.90;4.00;;;;;;;8.93;81.29;99866.29;104876;1275;60375;-79
2022/09/24 05:49:57;;;;;;;8.90;3.90;;;;;;;9.04;80.68;99869.90;104856;1274;73239;-75
2022/09/24 05:52:45;;;;;;;9.70;4.30;;;;;;;9.13;80.16;99869.02;104707;1277;65844;-77
2022/09/24 05:55:34;;;;;;;9.50;4.00;;;;;;;9.26;79.88;99870.23;104784;1274;71595;-75
2022/09/24 05:58:23;;;;;;;9.80;4.40;;;;;;;9.38;79.08;99866.70;104814;1275;59724;-76
2022/09/24 06:01:11;;;;;;;13.10;4.80;;;;;;;9.45;79.17;99868.61;104855;1274;61626;-76
2022/09/24 06:03:59;;;;;;;11.20;4.80;;;;;;;9.52;78.92;99864.34;104836;1275;75004;-77
2022/09/24 06:06:55;;;;;;;10.60;5.30;;;;;;;9.58;78.13;99861.48;104828;1275;68559;-76
2022/09/24 06:09:43;;;;;;;11.90;5.10;;;;;;;9.63;77.86;99861.61;104852;1273;70631;-77
2022/09/24 06:12:33;;;;;;;11.30;5.10;;;;;;;9.64;77.13;99861.32;105075;1271;60409;-75
2022/09/24 06:15:22;;;;;;;15.10;5.90;;;;;;;9.68;77.58;99862.23;105320;1271;59735;-76
2022/09/24 06:18:11;;;;;;;16.90;5.50;;;;;;;9.73;77.54;99864.04;105456;1271;74221;-71
2022/09/24 06:21:06;;;;;;;27.30;7.80;;;;;;;9.80;77.63;99863.46;105637;1271;69704;-75
2022/09/24 06:23:54;;;;;;;49.40;7.90;;;;;;;9.92;77.31;99860.79;105302;1271;72824;-78
2022/09/24 06:26:42;;;;;;;44.20;9.70;;;;;;;10.01;76.93;99863.63;104533;1271;1003058;-77
2022/09/24 06:29:32;;;;;;;47.80;10.80;;;;;;;10.11;76.89;99860.70;105434;1271;61813;-78
2022/09/24 06:32:23;;;;;;;69.10;11.20;;;;;;;10.22;76.29;99861.41;105390;1271;72973;-77
2022/09/24 06:35:10;;;;;;;54.90;10.60;;;;;;;10.37;75.98;99860.80;105391;1271;67864;-78
2022/09/24 06:37:59;;;;;;;49.40;9.30;;;;;;;10.49;75.05;99861.78;105226;1271;72887;-78
2022/09/24 06:40:49;;;;;;;40.80;9.30;;;;;;;10.63;74.67;99863.54;105161;1271;59728;-75
2022/09/24 06:43:38;;;;;;;55.40;9.70;;;;;;;10.83;73.63;99861.50;105200;1271;61836;-76
2022/09/24 06:46:26;;;;;;;50.50;8.70;;;;;;;11.00;73.45;99859.58;105147;1271;71923;-77
2022/09/24 06:49:14;;;;;;;55.80;10.40;;;;;;;11.33;72.45;99861.50;105165;1271;68127;-79
2022/09/24 06:52:03;;;;;;;64.00;11.60;;;;;;;11.59;71.58;99850.38;105138;1271;74274;-78
2022/09/24 06:54:54;;;;;;;64.40;12.30;;;;;;;12.09;70.29;99852.90;105026;1271;59862;-79
2022/09/24 06:57:43;;;;;;;45.40;8.70;;;;;;;12.67;67.21;99849.61;105285;1271;60419;-80
2022/09/24 07:00:32;;;;;;;45.40;9.50;;;;;;;12.95;65.84;99845.98;105345;1271;73137;-77
2022/09/24 07:03:21;;;;;;;37.20;8.90;;;;;;;13.62;64.11;99847.73;105103;1271;69977;-77
2022/09/24 07:06:09;;;;;;;48.00;8.90;;;;;;;14.75;59.90;99846.85;105168;1271;72645;-77
2022/09/24 07:08:57;;;;;;;40.00;8.20;;;;;;;15.27;57.80;99846.53;105042;1271;59597;-78
2022/09/24 07:11:45;;;;;;;25.50;7.60;;;;;;;15.91;56.47;99844.50;104981;1271;60276;-78
2022/09/24 07:14:36;;;;;;;34.00;7.90;;;;;;;16.66;53.02;99843.36;105247;1271;74841;-72
2022/09/24 07:17:27;;;;;;;30.90;7.60;;;;;;;17.23;50.59;99842.39;105055;1271;66852;-76
2022/09/24 07:20:20;;;;;;;25.90;9.20;;;;;;;17.71;48.12;99837.66;105005;1271;74244;-81
2022/09/24 07:23:11;;;;;;;24.00;7.60;;;;;;;17.83;47.76;99836.89;105047;1271;59847;-77
2022/09/24 07:25:59;;;;;;;26.00;8.50;;;;;;;17.69;48.42;99840.64;105186;1270;60837;-77
2022/09/24 07:28:47;;;;;;;24.00;8.70;;;;;;;17.81;48.24;99841.69;104935;1271;72990;-77
2022/09/24 07:31:36;;;;;;;26.70;8.80;;;;;;;18.02;47.77;99845.27;104977;1271;68079;-77
2022/09/24 07:34:24;;;;;;;19.30;8.40;;;;;;;18.14;46.71;99847.30;104963;1271;71082;-77
2022/09/24 07:37:12;;;;;;;20.80;8.30;;;;;;;18.36;47.06;99841.47;104930;1271;59625;-76
2022/09/24 07:40:00;;;;;;;17.40;8.40;;;;;;;18.61;46.03;99847.16;105235;1271;59659;-77
2022/09/24 07:42:48;;;;;;;18.20;8.50;;;;;;;18.73;46.22;99844.90;105171;1271;74484;-75
2022/09/24 07:45:37;;;;;;;17.60;7.90;;;;;;;19.01;46.41;99843.88;105217;1271;68908;-74
2022/09/24 07:48:25;;;;;;;13.50;6.70;;;;;;;19.36;44.06;99846.36;105155;1271;74385;-73
2022/09/24 07:51:27;;;;;;;12.90;6.00;;;;;;;19.83;44.05;99841.88;105143;1271;59987;-71
2022/09/24 07:54:15;;;;;;;11.20;4.50;;;;;;;20.38;42.36;99841.21;105402;1271;60447;-73
2022/09/24 07:57:12;;;;;;;11.00;4.00;;;;;;;20.68;40.99;99845.37;105134;1271;73837;-76
2022/09/24 08:00:00;;;;;;;11.20;3.90;;;;;;;20.69;40.57;99844.49;105462;1271;67912;-75
2022/09/24 08:02:58;;;;;;;14.60;4.10;;;;;;;21.28;39.69;99841.89;105577;1271;73121;-73
2022/09/24 08:05:46;;;;;;;11.30;3.90;;;;;;;21.77;39.46;99838.14;105206;1271;59762;-77
2022/09/24 08:08:34;;;;;;;8.00;3.50;;;;;;;22.42;37.85;99841.99;105380;1271;59658;-77
2022/09/24 08:11:22;;;;;;;8.70;2.90;;;;;;;23.00;35.73;99838.30;105342;1271;71840;-75
2022/09/24 08:14:11;;;;;;;7.10;2.30;;;;;;;23.52;33.67;99842.73;105203;1271;68843;-74
2022/09/24 08:17:00;;;;;;;8.90;2.60;;;;;;;24.20;32.82;99839.89;105423;1271;73332;-76
2022/09/24 08:19:48;;;;;;;8.00;2.70;;;;;;;24.70;31.31;99837.38;105248;1271;59584;-75
2022/09/24 08:22:36;;;;;;;7.60;2.80;;;;;;;25.31;31.33;99836.95;105214;1271;59513;-73
2022/09/24 08:25:24;;;;;;;6.30;2.30;;;;;;;25.60;29.14;99836.71;105530;1271;74450;-76
2022/09/24 08:28:15;;;;;;;7.80;2.20;;;;;;;25.70;29.13;99836.87;105218;1271;67428;-73
2022/09/24 08:31:09;;;;;;;6.50;2.20;;;;;;;25.70;28.35;99841.88;105199;1271;72246;-78
2022/09/24 08:33:57;;;;;;;6.60;2.10;;;;;;;25.78;28.28;99842.30;105027;1272;59719;-76
2022/09/24 08:36:46;;;;;;;6.50;2.50;;;;;;;25.90;28.52;99845.83;105215;1271;61282;-72
2022/09/24 08:39:34;;;;;;;6.70;2.20;;;;;;;25.76;27.72;99845.66;105213;1270;72960;-74
2022/09/24 08:42:40;;;;;;;7.30;2.10;;;;;;;25.68;28.11;99844.75;105141;1271;68151;-78
2022/09/24 08:48:52;;;;;;;7.10;2.60;;;;;;;26.33;27.12;99843.23;105376;1271;59670;-78
2022/09/24 08:51:55;;;;;;;7.70;2.40;;;;;;;26.85;27.04;99840.59;105270;1271;60222;-77
2022/09/24 08:54:45;;;;;;;6.20;2.00;;;;;;;27.43;25.98;99845.60;105187;1271;73402;-76
2022/09/24 08:58:07;;;;;;;6.60;2.00;;;;;;;28.15;25.04;99846.33;105502;1271;67583;-78
2022/09/24 09:01:11;;;;;;;6.60;1.90;;;;;;;28.66;23.99;99840.64;105658;1271;73481;-78
2022/09/24 09:04:26;;;;;;;8.50;2.00;;;;;;;28.83;23.63;99838.30;105529;1271;59675;-75
2022/09/24 09:07:28;;;;;;;6.90;2.10;;;;;;;29.48;23.78;99836.84;105590;1271;60260;-76
2022/09/24 09:10:34;;;;;;;7.10;1.90;;;;;;;30.04;22.72;99838.29;105018;1271;74466;-76
2022/09/24 09:13:31;;;;;;;8.40;1.90;;;;;;;29.98;22.40;99837.91;105283;1269;68408;-78
2022/09/24 09:16:40;;;;;;;5.80;1.70;;;;;;;28.77;23.75;99833.20;105069;1271;74436;-76
2022/09/24 09:19:34;;;;;;;7.10;1.60;;;;;;;27.74;24.44;99836.39;105182;1271;59570;-79
2022/09/24 09:22:30;;;;;;;6.40;1.60;;;;;;;27.15;24.37;99831.24;105681;1271;59577;-78
2022/09/24 09:25:27;;;;;;;6.20;1.70;;;;;;;26.84;25.19;99830.81;105561;1271;73251;-76
2022/09/24 09:28:18;;;;;;;6.60;1.40;;;;;;;26.68;25.74;99833.38;105364;1271;69760;-77
2022/09/24 09:31:18;;;;;;;7.00;1.90;;;;;;;26.40;26.01;99829.54;105095;1271;71291;-72
2022/09/24 09:34:30;;;;;;;6.50;1.60;;;;;;;26.26;25.75;99837.14;105304;1271;59672;-76
2022/09/24 09:37:40;;;;;;;5.90;1.60;;;;;;;26.32;25.74;99833.33;105233;1271;59730;-81
2022/09/24 09:40:44;;;;;;;5.70;1.50;;;;;;;25.33;25.50;99835.27;105343;1273;73987;-79
2022/09/24 09:43:34;;;;;;;6.50;1.60;;;;;;;24.66;26.41;99835.27;105260;1271;68927;-76
2022/09/24 09:46:30;;;;;;;7.50;1.60;;;;;;;23.75;27.40;99839.14;105195;1271;74220;-77
2022/09/24 09:49:18;;;;;;;5.10;1.50;;;;;;;22.99;28.66;99835.83;105224;1271;59773;-78
2022/09/24 09:52:19;;;;;;;7.20;1.70;;;;;;;22.35;29.16;99831.59;105150;1271;60969;-78
2022/09/24 09:55:26;;;;;;;6.30;1.70;;;;;;;21.68;30.81;99832.03;105090;1271;72055;-77
2022/09/24 09:58:23;;;;;;;5.80;1.80;;;;;;;21.13;32.03;99833.23;105031;1271;69365;-77
2022/09/24 10:01:18;;;;;;;5.80;1.70;;;;;;;20.69;32.66;99830.03;105116;1271;72093;-80
2022/09/24 10:04:40;;;;;;;6.10;1.80;;;;;;;20.69;33.05;99831.20;105016;1271;59623;-73
2022/09/24 10:07:30;;;;;;;5.20;1.30;;;;;;;21.74;32.06;99826.43;105000;1274;60477;-75
2022/09/24 10:10:23;;;;;;;5.50;1.50;;;;;;;21.73;30.66;99822.54;104918;1271;74502;-74
2022/09/24 10:13:12;;;;;;;6.10;1.80;;;;;;;21.62;31.79;99820.23;105017;1271;66910;-73
2022/09/24 10:16:07;;;;;;;5.90;1.90;;;;;;;22.91;29.79;99820.39;104982;1271;73884;-75
2022/09/24 10:18:55;;;;;;;6.80;1.60;;;;;;;24.71;27.31;99817.80;105051;1271;59720;-74
2022/09/24 10:21:43;;;;;;;5.40;1.60;;;;;;;26.11;25.80;99816.19;105584;1271;59894;-74
2022/09/24 10:24:35;;;;;;;5.50;1.60;;;;;;;26.58;24.96;99816.38;105446;1271;74267;-73
2022/09/24 10:27:35;;;;;;;5.80;1.90;;;;;;;26.75;24.75;99813.86;105118;1271;69617;-82
2022/09/24 10:30:32;;;;;;;6.50;1.90;;;;;;;27.18;24.87;99812.40;105151;1271;71773;-75
2022/09/24 10:33:21;;;;;;;5.60;1.80;;;;;;;27.44;23.85;99813.55;105175;1271;59644;-76
2022/09/24 10:36:26;;;;;;;7.50;2.80;;;;;;;26.69;24.36;99813.65;105078;1271;59629;-73
2022/09/24 10:39:17;;;;;;;6.20;1.90;;;;;;;25.05;26.15;99813.42;105550;1271;72117;-77
2022/09/24 10:42:06;;;;;;;6.80;1.90;;;;;;;23.80;27.40;99818.52;105152;1269;70160;-78
2022/09/24 10:45:00;;;;;;;6.20;1.70;;;;;;;22.93;29.34;99816.16;105443;1271;72661;-79
2022/09/24 10:47:58;;;;;;;6.20;2.30;;;;;;;22.11;31.07;99816.58;105163;1271;59714;-80
2022/09/24 10:51:27;;;;;;;7.40;2.70;;;;;;;21.26;32.38;99817.70;105275;1271;59653;-81
2022/09/24 10:55:08;;;;;;;6.90;2.20;;;;;;;20.36;33.99;99816.04;105889;1271;72196;-81
2022/09/24 10:58:30;;;;;;;8.20;2.10;;;;;;;19.51;36.03;99823.55;105166;1271;65626;-73
2022/09/24 11:01:46;;;;;;;7.30;2.60;;;;;;;18.90;36.86;99819.58;105372;1271;71625;-79
2022/09/24 11:05:02;;;;;;;7.50;2.30;;;;;;;18.44;37.08;99817.92;105414;1271;59692;-75
2022/09/24 11:08:20;;;;;;;7.60;2.30;;;;;;;18.11;37.48;99818.08;105203;1271;59694;-73
2022/09/24 11:11:55;;;;;;;5.70;1.90;;;;;;;17.88;37.63;99812.88;105474;1270;74153;-71
2022/09/24 11:15:18;;;;;;;7.90;2.30;;;;;;;17.89;37.97;99812.94;104999;1274;69370;-75
2022/09/24 11:18:19;;;;;;;6.40;2.20;;;;;;;18.60;37.59;99813.55;105253;1271;72807;-71
2022/09/24 11:21:37;;;;;;;5.80;2.10;;;;;;;19.65;36.34;99808.61;105132;1271;59643;-73
2022/09/24 11:25:07;;;;;;;6.70;1.90;;;;;;;20.62;35.09;99806.58;105463;1271;59603;-75
2022/09/24 11:28:28;;;;;;;5.90;2.00;;;;;;;21.12;33.62;99807.17;105020;1277;71981;-72
2022/09/24 11:31:26;;;;;;;7.80;2.10;;;;;;;21.89;33.44;99797.00;105072;1277;67397;-72
2022/09/24 11:35:13;;;;;;;5.90;2.00;;;;;;;22.61;32.44;99795.60;104769;1278;73743;-69
2022/09/24 11:38:14;;;;;;;7.80;2.20;;;;;;;22.85;31.01;99794.83;104590;1277;59927;-74
2022/09/24 11:41:04;;;;;;;6.30;2.00;;;;;;;23.03;29.31;99796.92;104750;1279;60585;-73
2022/09/24 11:44:20;;;;;;;7.70;2.40;;;;;;;23.31;28.12;99798.71;104497;1281;73120;-71
2022/09/24 11:48:01;;;;;;;6.30;2.00;;;;;;;23.38;27.80;99799.64;104637;1279;66697;-73
2022/09/24 11:51:03;;;;;;;5.80;1.80;;;;;;;23.56;29.39;99797.91;104924;1280;74249;-73
2022/09/24 11:54:02;;;;;;;5.80;1.80;;;;;;;23.71;29.11;99792.66;104403;1280;59959;-71
2022/09/24 11:57:00;;;;;;;5.30;1.60;;;;;;;23.64;26.96;99793.17;104819;1277;62037;-72
2022/09/24 11:59:57;;;;;;;6.50;1.70;;;;;;;23.28;25.34;99792.42;104827;1278;74501;-73
2022/09/24 12:03:05;;;;;;;5.80;1.90;;;;;;;23.04;25.58;99793.67;104971;1271;68321;-72
2022/09/24 12:06:01;;;;;;;5.70;1.90;;;;;;;22.97;26.06;99791.13;105076;1271;73432;-74
2022/09/24 12:08:54;;;;;;;5.70;1.70;;;;;;;22.90;26.16;99789.66;105052;1271;59832;-74
2022/09/24 12:12:13;;;;;;;5.50;1.70;;;;;;;22.51;26.89;99791.90;105544;1271;60968;-70
2022/09/24 12:15:33;;;;;;;6.10;1.90;;;;;;;21.76;27.73;99791.86;105394;1271;73083;-72
2022/09/24 12:19:23;;;;;;;6.30;1.80;;;;;;;21.04;29.35;99792.07;105386;1271;69124;-74
2022/09/24 12:22:16;;;;;;;5.90;1.80;;;;;;;20.53;30.69;99790.20;104793;1280;73363;-75
2022/09/24 12:25:10;;;;;;;5.70;1.90;;;;;;;20.12;31.58;99786.98;104758;1281;59724;-74
2022/09/24 12:28:00;;;;;;;7.40;2.40;;;;;;;19.77;32.40;99789.36;104999;1280;60886;-72
2022/09/24 12:34:26;;;;;;;6.20;2.10;;;;;;;19.21;34.12;99785.42;104714;1281;68304;-78
2022/09/24 12:37:21;;;;;;;7.10;2.50;;;;;;;18.98;34.81;99788.48;104565;1281;74422;-77
2022/09/24 12:40:53;;;;;;;7.00;2.60;;;;;;;18.78;35.43;99785.61;104515;1281;59995;-78
2022/09/24 12:44:11;;;;;;;7.60;2.80;;;;;;;18.38;35.89;99782.96;104447;1281;60289;-77
2022/09/24 12:47:16;;;;;;;7.50;2.40;;;;;;;18.07;36.64;99780.89;104401;1281;72019;-78
2022/09/24 12:50:07;;;;;;;7.10;2.50;;;;;;;17.78;37.76;99780.07;104715;1281;69402;-80
2022/09/24 12:52:56;;;;;;;7.70;2.40;;;;;;;17.56;37.57;99775.76;104558;1280;71312;-78
2022/09/24 12:55:45;;;;;;;6.80;2.10;;;;;;;17.42;38.24;99775.78;104737;1281;59835;-78
2022/09/24 12:58:44;;;;;;;7.00;2.20;;;;;;;17.37;38.76;99773.16;105043;1274;59619;-78
2022/09/24 13:01:33;;;;;;;6.60;2.70;;;;;;;17.33;39.15;99771.98;104841;1275;71854;-78
2022/09/24 13:04:26;;;;;;;6.10;2.30;;;;;;;17.35;39.55;99767.83;104984;1271;68723;-77
2022/09/24 13:07:36;;;;;;;8.30;2.30;;;;;;;17.37;39.62;99768.33;104986;1271;71440;-76
2022/09/24 13:10:35;;;;;;;9.60;2.70;;;;;;;17.36;39.44;99767.48;105169;1271;59781;-76
2022/09/24 13:13:31;;;;;;;7.00;2.30;;;;;;;17.31;39.37;99766.96;105136;1271;60143;-78
2022/09/24 13:16:20;;;;;;;7.50;3.10;;;;;;;17.21;39.52;99770.95;105051;1274;73572;-78
2022/09/24 13:19:42;;;;;;;8.00;2.80;;;;;;;17.15;40.18;99775.88;105034;1271;67018;-75
2022/09/24 13:22:34;;;;;;;6.80;2.90;;;;;;;17.04;39.62;99773.50;105102;1271;73017;-76
2022/09/24 13:25:25;;;;;;;7.60;2.80;;;;;;;16.91;41.09;99773.13;105257;1271;59764;-77
2022/09/24 13:28:47;;;;;;;7.50;2.80;;;;;;;16.85;41.77;99767.33;105313;1271;61021;-77
2022/09/24 13:31:53;;;;;;;7.90;2.60;;;;;;;16.75;42.45;99772.89;105031;1277;73464;-77
2022/09/24 13:34:46;;;;;;;7.60;2.80;;;;;;;16.63;42.91;99770.59;104740;1277;69396;-77
2022/09/24 13:37:40;;;;;;;7.90;2.90;;;;;;;16.45;43.55;99772.64;104622;1277;74117;-77
2022/09/24 13:40:37;;;;;;;9.20;2.90;;;;;;;16.26;43.98;99773.80;104525;1278;59746;-77